Time;durP1;ratioP1;P1;durP2;ratioP2;P2;SDS_P1;SDS_P2;PMS_P1;PMS_P2;Temp;Humidity;BMP_temperature;BMP_pressure;BME280_temperature;BME280_humidity;BME280_pressure;Samples;Min_cycle;Max_cycle;Signal;HPM_P1;HPM_P2
2023/07/22 09:52:46;;;;;;;2.20;0.95;;;26.00;65.10;;;;;;5962243;23;20022;-67
2023/07/22 09:55:13;;;;;;;3.38;1.02;;;26.20;61.50;;;;;;4963500;29;20061;-71
2023/07/22 09:57:45;;;;;;;2.00;0.90;;;26.30;61.70;;;;;;4960103;29;20217;-70
2023/07/22 10:00:20;;;;;;;1.92;0.90;;;26.70;59.70;;;;;;4966700;29;20439;-71
2023/07/22 10:02:49;;;;;;;1.95;0.70;;;26.50;59.00;;;;;;4950057;29;20035;-80
2023/07/22 10:05:18;;;;;;;;;;;26.20;59.80;;;;;;4949860;29;20035;-72
2023/07/22 10:07:50;;;;;;;2.03;0.93;;;26.10;60.30;;;;;;4966376;28;20196;-70
2023/07/22 10:10:29;;;;;;;2.95;0.90;;;26.30;59.60;;;;;;4971216;28;20058;-70
2023/07/22 10:12:57;;;;;;;2.85;1.00;;;26.50;60.20;;;;;;4949772;29;20062;-71
2023/07/22 10:15:25;;;;;;;2.25;0.90;;;27.10;58.40;;;;;;4966440;29;20039;-71
2023/07/22 10:17:53;;;;;;;2.42;0.80;;;27.00;58.20;;;;;;4966289;28;20217;-70
2023/07/22 10:20:20;;;;;;;2.17;0.70;;;27.40;57.70;;;;;;4966347;29;20094;-71
2023/07/22 10:22:47;;;;;;;1.90;0.88;;;27.60;57.40;;;;;;4957399;29;20035;-72
2023/07/22 10:25:18;;;;;;;2.80;1.13;;;27.60;57.30;;;;;;4955873;29;20154;-70
2023/07/22 10:27:45;;;;;;;1.77;0.95;;;27.70;56.00;;;;;;4953355;29;20058;-71
2023/07/22 10:30:16;;;;;;;1.65;0.80;;;27.10;56.20;;;;;;4946506;29;20094;-71
2023/07/22 10:32:44;;;;;;;3.10;1.08;;;26.90;56.10;;;;;;4947292;29;20028;-71
2023/07/22 10:35:23;;;;;;;2.10;0.80;;;26.70;57.20;;;;;;4946430;29;20139;-71
2023/07/22 10:37:52;;;;;;;1.33;0.70;;;26.40;57.50;;;;;;4954640;28;20026;-71
2023/07/22 10:40:19;;;;;;;2.88;1.00;;;26.30;58.00;;;;;;4966127;29;20091;-73
2023/07/22 10:42:53;;;;;;;2.08;0.82;;;26.60;57.50;;;;;;4966642;29;20106;-72
2023/07/22 10:45:30;;;;;;;2.83;1.13;;;26.90;58.10;;;;;;4965759;29;20367;-71
2023/07/22 10:48:09;;;;;;;2.57;0.77;;;27.10;56.50;;;;;;4966072;28;20046;-71
2023/07/22 10:50:46;;;;;;;2.35;0.80;;;27.20;56.20;;;;;;4965916;28;20027;-69
2023/07/22 10:53:24;;;;;;;1.73;0.80;;;27.00;56.70;;;;;;4964061;29;20039;-71
2023/07/22 10:56:28;;;;;;;2.53;0.90;;;26.60;56.50;;;;;;4947143;29;20265;-70
2023/07/22 10:58:53;;;;;;;3.53;1.05;;;26.80;57.10;;;;;;4946396;29;20043;-71
2023/07/22 11:01:28;;;;;;;1.60;0.80;;;26.80;56.70;;;;;;4946261;29;20361;-70
2023/07/22 11:04:14;;;;;;;1.67;0.82;;;27.00;56.50;;;;;;4947065;29;20369;-72
2023/07/22 11:06:48;;;;;;;2.10;1.00;;;27.30;56.60;;;;;;4936078;29;20365;-70
2023/07/22 11:09:29;;;;;;;2.35;0.93;;;27.40;55.50;;;;;;4936104;29;20039;-70
2023/07/22 11:12:08;;;;;;;2.30;1.02;;;27.20;55.40;;;;;;4941483;29;20283;-71
2023/07/22 11:14:39;;;;;;;2.30;1.00;;;27.60;55.50;;;;;;4943816;29;20043;-71
2023/07/22 11:17:07;;;;;;;2.72;0.80;;;27.30;55.50;;;;;;4946309;29;20026;-71
2023/07/22 11:19:33;;;;;;;2.13;1.08;;;26.70;56.10;;;;;;4945964;29;20044;-71
2023/07/22 11:21:59;;;;;;;1.67;0.80;;;26.40;56.60;;;;;;4943578;29;20036;-71
2023/07/22 11:24:25;;;;;;;3.55;1.00;;;26.20;57.30;;;;;;4943431;29;20040;-70
2023/07/22 11:26:52;;;;;;;1.83;1.00;;;26.10;57.80;;;;;;4942991;29;20039;-70
2023/07/22 11:29:18;;;;;;;2.13;1.00;;;26.20;58.50;;;;;;4944210;29;20036;-72
2023/07/22 11:31:46;;;;;;;2.58;1.05;;;26.60;58.20;;;;;;4939968;29;20057;-72
2023/07/22 11:34:13;;;;;;;2.08;0.95;;;27.00;57.60;;;;;;4927074;29;20223;-72
2023/07/22 11:36:39;;;;;;;2.17;1.25;;;27.30;57.40;;;;;;4939562;29;20056;-71
2023/07/22 11:39:07;;;;;;;2.33;1.02;;;27.50;57.40;;;;;;4945958;29;20047;-71
2023/07/22 11:41:33;;;;;;;3.90;1.00;;;26.90;57.20;;;;;;4945654;29;20045;-72
2023/07/22 11:44:00;;;;;;;2.25;1.10;;;27.20;57.90;;;;;;4946191;29;20052;-70
2023/07/22 11:46:27;;;;;;;2.20;0.95;;;27.80;57.00;;;;;;4944963;29;20095;-70
2023/07/22 11:48:54;;;;;;;2.28;1.00;;;29.00;55.80;;;;;;4932750;29;20032;-70
2023/07/22 11:51:24;;;;;;;2.03;1.00;;;29.10;55.30;;;;;;4926391;29;20040;-70
2023/07/22 11:53:51;;;;;;;1.88;0.77;;;29.80;55.20;;;;;;4940399;28;20055;-73
2023/07/22 11:56:26;;;;;;;1.67;0.90;;;30.90;54.30;;;;;;4983993;28;20053;-71
2023/07/22 11:58:56;;;;;;;2.75;1.02;;;32.20;52.00;;;;;;4984523;28;20339;-71
2023/07/22 12:01:23;;;;;;;2.40;0.88;;;32.90;51.10;;;;;;4984033;28;20117;-71
2023/07/22 12:03:49;;;;;;;2.22;0.73;;;33.20;50.60;;;;;;4984363;28;20038;-70
2023/07/22 12:06:15;;;;;;;2.55;0.77;;;33.20;50.80;;;;;;4984142;28;20039;-71
2023/07/22 12:08:49;;;;;;;2.65;0.80;;;33.60;49.50;;;;;;4984135;28;20089;-72
2023/07/22 12:11:22;;;;;;;2.85;1.00;;;34.30;49.40;;;;;;4983887;28;20364;-71
2023/07/22 12:14:15;;;;;;;2.72;1.20;;;33.00;49.40;;;;;;4984097;28;20039;-70
2023/07/22 12:16:41;;;;;;;2.33;1.02;;;32.10;50.60;;;;;;4980058;28;20104;-71
2023/07/22 12:19:09;;;;;;;2.30;1.10;;;30.80;51.40;;;;;;4984257;28;20042;-70
2023/07/22 12:21:35;;;;;;;2.22;0.90;;;29.90;53.40;;;;;;4983586;28;20256;-70
2023/07/22 12:24:01;;;;;;;3.03;1.30;;;29.10;54.00;;;;;;4984022;28;20027;-70
2023/07/22 12:26:28;;;;;;;4.13;0.90;;;28.70;54.60;;;;;;4983728;28;20054;-70
2023/07/22 12:28:54;;;;;;;2.47;1.00;;;29.30;54.20;;;;;;4984096;28;20034;-70
2023/07/22 12:31:19;;;;;;;2.20;1.00;;;30.70;52.60;;;;;;4983600;28;20034;-70
2023/07/22 12:33:45;;;;;;;2.60;1.10;;;32.00;51.70;;;;;;4967094;28;20380;-71
2023/07/22 12:36:11;;;;;;;1.92;0.77;;;33.90;49.40;;;;;;4983975;28;20073;-70
2023/07/22 12:38:37;;;;;;;2.97;1.20;;;35.20;48.40;;;;;;4983259;28;20324;-69
2023/07/22 12:41:03;;;;;;;1.63;0.82;;;36.30;46.60;;;;;;4984051;28;20312;-70
2023/07/22 12:43:29;;;;;;;3.00;1.00;;;36.00;46.70;;;;;;4983254;28;20031;-70
2023/07/22 12:45:55;;;;;;;2.05;0.93;;;36.10;45.70;;;;;;4983682;28;20309;-72
2023/07/22 12:48:21;;;;;;;3.08;0.90;;;34.70;46.90;;;;;;4983018;28;20023;-71
2023/07/22 12:50:49;;;;;;;1.90;1.00;;;33.20;47.80;;;;;;4983643;28;20027;-70
2023/07/22 12:53:15;;;;;;;1.95;1.10;;;33.60;48.40;;;;;;4966313;28;20320;-71
2023/07/22 12:55:40;;;;;;;2.30;1.30;;;33.50;47.60;;;;;;4966250;28;20054;-71
2023/07/22 12:58:06;;;;;;;2.03;1.15;;;32.50;48.00;;;;;;4984815;28;20034;-70
2023/07/22 13:00:32;;;;;;;2.28;1.30;;;31.80;48.80;;;;;;4987156;28;20027;-71
2023/07/22 13:02:58;;;;;;;2.08;1.17;;;30.60;49.70;;;;;;4987318;28;20139;-71
2023/07/22 13:05:24;;;;;;;2.03;1.13;;;29.60;50.80;;;;;;4987183;28;20034;-70
2023/07/22 13:07:50;;;;;;;2.60;1.25;;;29.70;51.10;;;;;;4987648;28;20086;-70
2023/07/22 13:10:18;;;;;;;2.25;1.20;;;31.40;49.70;;;;;;4987662;28;20069;-69
2023/07/22 13:12:44;;;;;;;;;;;33.60;48.00;;;;;;4987879;28;20023;-70
2023/07/22 13:15:10;;;;;;;2.47;1.05;;;34.70;46.80;;;;;;4986155;28;19921;-70
2023/07/22 13:17:36;;;;;;;3.58;1.10;;;35.90;45.80;;;;;;4969694;28;20342;-70
2023/07/22 13:20:08;;;;;;;4.47;1.20;;;36.00;44.80;;;;;;4987094;28;20086;-71
2023/07/22 13:22:36;;;;;;;2.47;1.20;;;34.30;45.60;;;;;;4987034;28;20098;-70
2023/07/22 13:25:02;;;;;;;2.23;1.30;;;34.00;46.40;;;;;;4987081;28;20047;-71
2023/07/22 13:27:28;;;;;;;2.80;1.25;;;33.10;47.10;;;;;;4986576;28;20121;-70
2023/07/22 13:29:54;;;;;;;2.03;1.13;;;32.50;47.20;;;;;;4987316;28;20035;-70
2023/07/22 13:32:20;;;;;;;2.50;1.33;;;32.40;47.00;;;;;;4986775;28;20031;-70
2023/07/22 13:34:45;;;;;;;3.17;1.58;;;31.50;48.60;;;;;;4987105;28;20102;-70
2023/07/22 13:37:11;;;;;;;2.60;1.50;;;31.80;48.40;;;;;;4987090;28;20220;-70
2023/07/22 13:39:37;;;;;;;2.38;1.30;;;32.80;47.60;;;;;;4986220;28;20034;-72
2023/07/22 13:42:02;;;;;;;2.47;1.38;;;34.10;47.00;;;;;;4986946;28;20043;-71
2023/07/22 13:44:28;;;;;;;2.58;1.38;;;33.10;46.60;;;;;;4986182;28;20076;-71
2023/07/22 13:46:54;;;;;;;3.00;1.50;;;31.50;48.00;;;;;;4986792;28;20031;-70
2023/07/22 13:49:20;;;;;;;3.53;1.40;;;31.00;49.30;;;;;;4986555;28;20078;-71
2023/07/22 13:51:46;;;;;;;4.80;1.50;;;31.50;48.40;;;;;;4986913;28;20033;-69
2023/07/22 13:54:12;;;;;;;3.67;1.60;;;31.40;47.60;;;;;;4986012;28;20050;-71
2023/07/22 13:56:37;;;;;;;3.60;1.60;;;31.20;48.70;;;;;;4986376;28;20102;-70
2023/07/22 13:59:04;;;;;;;3.05;1.63;;;30.80;49.50;;;;;;4986485;28;20038;-69
2023/07/22 14:01:31;;;;;;;2.60;1.35;;;30.70;49.70;;;;;;4986123;28;20305;-70
2023/07/22 14:03:57;;;;;;;3.33;1.40;;;31.70;49.20;;;;;;4986301;28;20074;-72
2023/07/22 14:06:23;;;;;;;3.33;1.40;;;34.00;47.10;;;;;;4969021;28;20408;-70
2023/07/22 14:08:49;;;;;;;2.58;1.58;;;35.10;45.70;;;;;;4986174;28;20440;-70
2023/07/22 14:11:14;;;;;;;3.53;1.67;;;33.80;45.60;;;;;;4985298;28;20035;-70
2023/07/22 14:13:40;;;;;;;3.50;1.88;;;33.30;46.20;;;;;;4985575;28;20252;-69
2023/07/22 14:16:06;;;;;;;2.08;1.30;;;32.70;47.00;;;;;;4986329;28;20026;-71
2023/07/22 14:18:33;;;;;;;3.55;1.52;;;32.30;47.40;;;;;;4985569;28;20043;-70
2023/07/22 14:20:59;;;;;;;2.95;1.55;;;31.30;48.50;;;;;;4986353;28;20062;-70
2023/07/22 14:23:24;;;;;;;3.05;1.50;;;31.10;48.90;;;;;;4985403;28;20034;-69
2023/07/22 14:25:50;;;;;;;4.97;2.00;;;31.00;49.60;;;;;;4986002;28;20041;-69
2023/07/22 14:28:16;;;;;;;3.00;1.50;;;32.70;48.20;;;;;;4985985;28;20066;-71
2023/07/22 14:30:42;;;;;;;2.60;1.55;;;34.40;46.50;;;;;;4985502;28;20305;-71
2023/07/22 14:33:07;;;;;;;4.00;1.48;;;36.30;45.40;;;;;;4985996;28;20087;-69
2023/07/22 14:35:34;;;;;;;2.50;1.23;;;36.20;44.80;;;;;;4985090;28;20206;-70
2023/07/22 14:38:00;;;;;;;2.42;1.60;;;36.10;44.40;;;;;;4985802;28;20065;-70
2023/07/22 14:40:26;;;;;;;2.17;1.38;;;35.40;44.70;;;;;;4985465;28;20102;-73
2023/07/22 14:42:53;;;;;;;2.63;1.42;;;36.00;44.90;;;;;;4985703;28;20102;-70
2023/07/22 14:45:18;;;;;;;2.50;1.35;;;37.50;44.10;;;;;;4985880;28;20050;-70
2023/07/22 14:47:44;;;;;;;2.30;1.50;;;37.90;43.60;;;;;;4984965;28;20280;-70
2023/07/22 14:50:10;;;;;;;3.58;1.45;;;37.90;43.50;;;;;;4985850;28;20035;-70
2023/07/22 14:52:36;;;;;;;3.83;1.30;;;39.00;42.80;;;;;;4985254;28;20348;-70
2023/07/22 14:55:01;;;;;;;5.22;1.50;;;38.70;42.40;;;;;;4985317;28;20090;-70
2023/07/22 14:57:29;;;;;;;2.63;1.63;;;37.40;42.70;;;;;;4985227;28;20391;-71
2023/07/22 14:59:55;;;;;;;3.42;1.90;;;36.30;44.30;;;;;;4968291;28;20253;-70
2023/07/22 15:02:21;;;;;;;2.85;1.60;;;35.20;44.70;;;;;;4968403;28;20224;-69
2023/07/22 15:04:48;;;;;;;2.83;1.80;;;34.70;45.00;;;;;;4985087;28;20051;-69
2023/07/22 15:07:14;;;;;;;3.72;1.83;;;34.50;44.80;;;;;;4985039;28;20225;-70
2023/07/22 15:09:40;;;;;;;3.40;1.92;;;33.30;45.20;;;;;;4984512;28;20317;-69
2023/07/22 15:12:07;;;;;;;3.38;1.75;;;32.60;46.20;;;;;;4985052;28;20046;-70
2023/07/22 15:14:33;;;;;;;4.22;2.35;;;31.50;47.20;;;;;;4984363;28;20034;-70
2023/07/22 15:16:59;;;;;;;3.65;1.70;;;31.00;48.50;;;;;;4984913;28;20217;-69
2023/07/22 15:19:26;;;;;;;4.50;2.22;;;31.00;48.20;;;;;;4985126;28;20035;-70
2023/07/22 15:21:52;;;;;;;5.20;2.08;;;30.20;48.70;;;;;;4984959;28;20093;-69
2023/07/22 15:24:18;;;;;;;4.45;2.28;;;29.90;49.20;;;;;;4984991;28;20034;-69
2023/07/22 15:26:44;;;;;;;3.92;2.10;;;29.40;50.50;;;;;;4984485;28;20034;-69
2023/07/22 15:29:10;;;;;;;3.65;2.15;;;29.20;50.30;;;;;;4985077;28;20058;-70
2023/07/22 15:31:35;;;;;;;4.10;1.95;;;29.50;50.30;;;;;;4984347;28;20031;-69
2023/07/22 15:34:01;;;;;;;3.85;1.90;;;29.50;50.00;;;;;;4984558;28;20093;-69
2023/07/22 15:36:27;;;;;;;4.20;2.05;;;29.60;50.10;;;;;;4984846;28;20312;-70
2023/07/22 15:38:53;;;;;;;3.58;2.00;;;30.00;49.70;;;;;;4984749;28;20179;-69
2023/07/22 15:41:18;;;;;;;3.22;1.77;;;30.00;49.30;;;;;;4984734;28;20086;-70
2023/07/22 15:43:44;;;;;;;6.13;2.10;;;30.10;49.00;;;;;;4967025;28;20027;-70
2023/07/22 15:46:10;;;;;;;4.10;2.20;;;30.00;49.40;;;;;;4984712;28;20058;-69
2023/07/22 15:48:35;;;;;;;4.32;2.08;;;30.20;49.60;;;;;;4984080;28;20035;-71
2023/07/22 15:51:01;;;;;;;5.65;2.10;;;30.60;49.50;;;;;;4984438;28;20039;-70
2023/07/22 15:53:27;;;;;;;3.50;2.03;;;30.90;49.60;;;;;;4984268;28;20337;-69
2023/07/22 15:55:53;;;;;;;2.83;1.63;;;30.70;49.30;;;;;;4983876;28;20040;-68
2023/07/22 15:58:19;;;;;;;3.45;1.90;;;30.30;50.00;;;;;;4984217;28;20046;-70
2023/07/22 16:00:45;;;;;;;3.20;1.60;;;30.20;50.40;;;;;;4983885;28;20042;-70
2023/07/22 16:03:12;;;;;;;4.80;1.95;;;30.20;50.80;;;;;;4984244;28;20037;-70
2023/07/22 16:05:37;;;;;;;3.97;1.92;;;30.30;50.40;;;;;;4983786;28;20106;-69
2023/07/22 16:08:03;;;;;;;2.92;1.70;;;30.30;50.70;;;;;;4984565;28;20034;-69
2023/07/22 16:10:33;;;;;;;5.40;1.77;;;30.20;50.90;;;;;;4984137;28;20045;-69
2023/07/22 16:12:59;;;;;;;2.92;1.58;;;30.50;51.00;;;;;;4984320;28;20066;-71
2023/07/22 16:15:25;;;;;;;3.88;1.70;;;30.80;50.10;;;;;;4966759;28;20046;-70
2023/07/22 16:17:50;;;;;;;3.85;1.58;;;30.70;50.30;;;;;;4982663;28;20324;-71
2023/07/22 16:20:18;;;;;;;3.40;1.73;;;30.30;50.80;;;;;;4984339;28;20034;-70
2023/07/22 16:22:44;;;;;;;;;;;30.20;51.40;;;;;;4967016;28;20039;-69
2023/07/22 16:25:11;;;;;;;3.05;1.67;;;29.90;51.70;;;;;;4983606;28;19930;-69
2023/07/22 16:27:37;;;;;;;2.63;1.60;;;29.90;51.80;;;;;;4983604;28;20084;-71
2023/07/22 16:30:04;;;;;;;7.15;1.73;;;29.90;51.30;;;;;;4984235;28;20054;-70
2023/07/22 16:32:31;;;;;;;3.00;1.40;;;30.40;51.40;;;;;;4983803;28;20086;-71
2023/07/22 16:34:57;;;;;;;3.45;1.42;;;30.80;50.80;;;;;;4982616;28;20320;-70
2023/07/22 16:37:23;;;;;;;3.25;1.45;;;30.50;50.70;;;;;;4984029;28;20045;-72
2023/07/22 16:39:49;;;;;;;3.28;1.75;;;30.10;51.50;;;;;;4983190;28;20053;-71
2023/07/22 16:42:15;;;;;;;2.67;1.50;;;29.80;51.70;;;;;;4983967;28;20212;-72
2023/07/22 16:44:40;;;;;;;3.80;1.50;;;29.60;51.90;;;;;;4966083;28;20050;-70
2023/07/22 16:47:06;;;;;;;3.13;1.67;;;29.50;52.40;;;;;;4983866;28;20038;-70
2023/07/22 16:49:32;;;;;;;3.45;1.80;;;29.80;52.00;;;;;;4983354;28;20058;-70
2023/07/22 16:51:57;;;;;;;3.13;1.50;;;30.30;51.50;;;;;;4983759;28;20030;-70
2023/07/22 16:54:23;;;;;;;3.28;1.70;;;30.40;51.00;;;;;;4983573;28;20051;-70
2023/07/22 16:56:49;;;;;;;3.75;2.13;;;30.10;51.30;;;;;;4983346;28;20220;-70
2023/07/22 16:59:15;;;;;;;3.45;1.60;;;29.90;51.30;;;;;;4983699;28;20034;-70
2023/07/22 17:01:40;;;;;;;5.68;2.33;;;29.60;51.40;;;;;;4983326;28;20317;-70
2023/07/22 17:04:10;;;;;;;2.88;1.60;;;29.30;51.50;;;;;;4983754;28;20038;-71
2023/07/22 17:06:36;;;;;;;2.95;1.70;;;29.00;52.10;;;;;;4966144;28;20220;-72
2023/07/22 17:09:02;;;;;;;4.38;1.70;;;28.90;52.50;;;;;;4963387;29;20031;-72
2023/07/22 17:11:28;;;;;;;3.40;1.73;;;29.00;52.20;;;;;;4964249;29;20050;-71
2023/07/22 17:13:54;;;;;;;4.25;1.88;;;29.20;52.20;;;;;;4963880;29;20094;-72
2023/07/22 17:16:20;;;;;;;3.50;1.60;;;29.20;52.10;;;;;;4964342;29;20047;-72
2023/07/22 17:18:46;;;;;;;4.20;1.45;;;29.10;52.00;;;;;;4963690;29;20055;-71
2023/07/22 17:21:12;;;;;;;3.08;1.73;;;29.70;51.00;;;;;;4964466;29;20204;-72
2023/07/22 17:23:39;;;;;;;3.33;1.90;;;30.70;50.40;;;;;;4964026;29;20106;-71
2023/07/22 17:26:05;;;;;;;2.80;1.70;;;31.90;48.90;;;;;;4982809;28;20098;-70
2023/07/22 17:28:31;;;;;;;3.05;1.77;;;33.10;47.70;;;;;;4983791;28;20049;-71
2023/07/22 17:31:00;;;;;;;3.72;1.70;;;34.00;46.90;;;;;;4983178;28;20085;-72
2023/07/22 17:33:26;;;;;;;3.55;1.67;;;34.50;46.10;;;;;;4983705;28;20066;-71
2023/07/22 17:35:52;;;;;;;3.47;1.50;;;34.20;46.20;;;;;;4983092;28;20035;-70
2023/07/22 17:38:18;;;;;;;3.67;1.60;;;33.90;45.70;;;;;;4983559;28;20242;-71
2023/07/22 17:40:47;;;;;;;2.15;1.30;;;33.90;45.70;;;;;;4982782;28;20272;-70
2023/07/22 17:43:13;;;;;;;4.63;2.22;;;33.50;46.30;;;;;;4969971;28;20045;-71
2023/07/22 17:45:39;;;;;;;4.15;1.65;;;33.70;46.20;;;;;;4965254;28;20249;-71
2023/07/22 17:48:05;;;;;;;3.80;1.48;;;34.00;46.10;;;;;;4967625;29;20023;-71
2023/07/22 17:50:31;;;;;;;3.97;1.70;;;33.80;45.70;;;;;;4967115;29;20224;-70
2023/07/22 17:52:57;;;;;;;2.63;1.67;;;33.30;45.80;;;;;;4966903;28;20317;-77
2023/07/22 17:55:22;;;;;;;3.45;1.70;;;32.70;46.50;;;;;;4946493;29;20054;-71
2023/07/22 17:57:48;;;;;;;3.65;1.80;;;32.50;46.50;;;;;;4947824;29;20035;-72
2023/07/22 18:00:15;;;;;;;3.38;2.10;;;32.50;46.60;;;;;;4945530;29;20070;-72
2023/07/22 18:02:41;;;;;;;3.42;1.60;;;32.30;47.20;;;;;;4947560;29;20290;-72
2023/07/22 18:05:07;;;;;;;4.13;1.90;;;31.90;47.00;;;;;;4947879;29;20066;-71
2023/07/22 18:07:34;;;;;;;4.18;1.70;;;31.60;47.50;;;;;;4947680;29;20036;-70
2023/07/22 18:10:00;;;;;;;4.47;1.87;;;31.30;48.00;;;;;;4947440;29;20051;-70
2023/07/22 18:12:26;;;;;;;4.00;1.60;;;31.00;48.60;;;;;;4947611;29;20095;-73
2023/07/22 18:14:52;;;;;;;3.08;1.83;;;30.50;49.20;;;;;;4947180;29;20071;-72
2023/07/22 18:17:17;;;;;;;4.85;1.85;;;29.80;50.20;;;;;;4947776;29;20348;-71
2023/07/22 18:19:43;;;;;;;3.47;1.73;;;29.40;50.90;;;;;;4947206;29;20039;-71
2023/07/22 18:22:09;;;;;;;4.20;1.70;;;28.90;51.40;;;;;;4947812;29;20032;-72
2023/07/22 18:24:34;;;;;;;3.00;1.70;;;28.60;51.60;;;;;;4947593;29;20245;-70
2023/07/22 18:27:00;;;;;;;3.10;1.65;;;28.20;52.20;;;;;;4946968;29;20039;-71
2023/07/22 18:29:26;;;;;;;4.25;1.90;;;27.80;52.70;;;;;;4947586;29;20054;-72
2023/07/22 18:31:51;;;;;;;3.85;1.85;;;27.40;53.40;;;;;;4946727;29;20273;-71
2023/07/22 18:34:21;;;;;;;4.72;2.05;;;27.20;54.10;;;;;;4947652;29;20282;-73
2023/07/22 18:36:48;;;;;;;4.18;2.33;;;26.90;54.30;;;;;;4946681;29;20345;-72
2023/07/22 18:39:14;;;;;;;4.25;1.90;;;26.80;54.80;;;;;;4947222;29;20028;-71
2023/07/22 18:41:40;;;;;;;3.67;2.20;;;26.70;54.90;;;;;;4946959;29;20044;-72
2023/07/22 18:44:06;;;;;;;3.80;1.90;;;26.60;55.10;;;;;;4947155;29;20262;-71
2023/07/22 18:46:32;;;;;;;3.63;2.10;;;26.50;55.30;;;;;;4946994;29;20028;-72
2023/07/22 18:48:57;;;;;;;4.93;2.20;;;26.40;55.30;;;;;;4946936;29;20194;-73
2023/07/22 18:51:23;;;;;;;3.60;2.20;;;26.20;56.00;;;;;;4947203;29;20302;-72
2023/07/22 18:53:49;;;;;;;3.72;2.03;;;26.10;56.00;;;;;;4952223;28;20051;-73
2023/07/22 18:56:15;;;;;;;4.78;2.28;;;25.90;56.60;;;;;;4965684;28;20070;-70
2023/07/22 18:58:41;;;;;;;4.03;2.20;;;25.80;56.90;;;;;;4965784;28;20039;-71
2023/07/22 19:01:07;;;;;;;4.13;2.30;;;25.70;57.30;;;;;;4965900;29;20027;-71
2023/07/22 19:03:34;;;;;;;5.72;2.53;;;25.60;57.40;;;;;;4966136;28;20026;-73
2023/07/22 19:05:59;;;;;;;3.47;2.08;;;25.40;58.00;;;;;;4965796;29;20043;-72
2023/07/22 19:08:26;;;;;;;5.20;2.80;;;25.30;58.40;;;;;;4966162;28;20042;-72
2023/07/22 19:10:53;;;;;;;12.00;9.00;;;25.10;58.50;;;;;;4965434;28;20063;-71
2023/07/22 19:13:18;;;;;;;10.52;8.07;;;24.90;59.00;;;;;;4965827;28;20091;-72
2023/07/22 19:15:48;;;;;;;7.65;5.45;;;24.60;59.50;;;;;;4965475;28;20047;-74
2023/07/22 19:18:14;;;;;;;6.93;3.83;;;24.40;59.90;;;;;;4965797;28;20023;-72
2023/07/22 19:20:39;;;;;;;5.88;4.10;;;24.20;60.60;;;;;;4966078;28;20031;-72
2023/07/22 19:23:08;;;;;;;6.22;3.90;;;24.00;61.40;;;;;;4965394;29;20364;-72
2023/07/22 19:25:38;;;;;;;7.20;3.75;;;23.90;62.00;;;;;;4965725;29;20047;-72
2023/07/22 19:28:06;;;;;;;5.43;3.25;;;23.70;62.30;;;;;;4965162;29;20051;-71
2023/07/22 19:30:36;;;;;;;4.53;2.60;;;23.60;62.70;;;;;;4965446;29;20313;-72
2023/07/22 19:33:01;;;;;;;5.72;3.08;;;23.50;62.80;;;;;;4965408;29;20102;-73
2023/07/22 19:35:27;;;;;;;4.78;2.75;;;23.50;62.80;;;;;;4965718;29;20046;-72
2023/07/22 19:37:53;;;;;;;5.07;2.58;;;23.40;62.90;;;;;;4965081;29;20087;-73
2023/07/22 19:40:18;;;;;;;3.78;2.22;;;23.40;63.00;;;;;;4948602;29;20079;-73
2023/07/22 19:42:44;;;;;;;5.00;2.55;;;23.30;62.90;;;;;;4964662;28;20035;-71
2023/07/22 19:45:10;;;;;;;4.45;2.63;;;23.20;63.30;;;;;;4965549;28;20217;-72
2023/07/22 19:47:35;;;;;;;4.47;2.50;;;23.10;63.20;;;;;;4965041;28;20035;-72
2023/07/22 19:50:03;;;;;;;4.20;2.40;;;23.10;63.60;;;;;;4964520;28;20031;-71
2023/07/22 19:52:28;;;;;;;4.53;2.83;;;22.90;63.70;;;;;;4965166;28;20046;-71
2023/07/22 19:54:54;;;;;;;4.40;2.75;;;22.90;64.00;;;;;;4949837;29;20044;-72
2023/07/22 19:57:20;;;;;;;6.70;2.78;;;22.60;64.60;;;;;;4945878;29;20107;-72
2023/07/22 19:59:45;;;;;;;4.88;3.10;;;22.50;64.90;;;;;;4945629;29;20062;-72
2023/07/22 20:02:11;;;;;;;5.63;3.05;;;22.40;64.90;;;;;;4945664;29;20032;-71
2023/07/22 20:04:37;;;;;;;6.57;3.20;;;22.30;64.90;;;;;;4945433;29;20032;-72
2023/07/22 20:07:02;;;;;;;4.55;2.58;;;22.30;65.20;;;;;;4944181;29;20118;-72
2023/07/22 20:09:28;;;;;;;6.28;3.40;;;22.20;65.60;;;;;;4945109;29;20039;-73
2023/07/22 20:11:54;;;;;;;4.80;2.70;;;22.20;65.80;;;;;;4945170;29;20042;-71
2023/07/22 20:14:19;;;;;;;4.50;2.92;;;22.10;65.70;;;;;;4945465;29;20030;-72
2023/07/22 20:16:45;;;;;;;6.50;4.35;;;22.10;66.00;;;;;;4928186;29;20034;-72
2023/07/22 20:19:11;;;;;;;6.97;4.32;;;21.90;67.40;;;;;;4945864;29;20035;-72
2023/07/22 20:21:36;;;;;;;7.15;4.82;;;21.90;67.80;;;;;;4945458;29;20059;-71
2023/07/22 20:24:02;;;;;;;7.30;4.28;;;21.80;67.80;;;;;;4944734;29;20032;-70
2023/07/22 20:26:28;;;;;;;5.80;3.75;;;21.80;67.80;;;;;;4945401;29;20040;-72
2023/07/22 20:28:54;;;;;;;5.32;3.00;;;21.70;67.80;;;;;;4945050;29;20055;-72
2023/07/22 20:31:19;;;;;;;5.97;3.50;;;21.70;67.20;;;;;;4945390;29;20042;-70
2023/07/22 20:33:45;;;;;;;5.90;3.85;;;21.80;67.60;;;;;;4945020;29;20068;-73
2023/07/22 20:36:11;;;;;;;6.40;3.83;;;21.80;67.80;;;;;;4945570;29;20050;-71
2023/07/22 20:38:37;;;;;;;5.60;3.40;;;21.70;68.30;;;;;;4945527;29;20218;-71
2023/07/22 20:41:06;;;;;;;6.25;3.88;;;21.70;68.40;;;;;;4944802;29;20047;-72
2023/07/22 20:43:32;;;;;;;6.45;3.83;;;21.70;68.60;;;;;;4945549;29;20024;-71
2023/07/22 20:46:05;;;;;;;7.40;5.18;;;21.70;68.60;;;;;;4944880;29;20043;-71
2023/07/22 20:48:31;;;;;;;9.43;4.95;;;21.70;68.40;;;;;;4945415;29;20040;-71
2023/07/22 20:50:57;;;;;;;10.55;6.85;;;21.70;69.00;;;;;;4944995;29;20036;-71
2023/07/22 20:53:29;;;;;;;7.65;5.43;;;21.70;69.00;;;;;;4947881;29;20063;-71
2023/07/22 20:55:59;;;;;;;8.45;4.57;;;21.60;69.80;;;;;;4964024;28;20143;-71
2023/07/22 20:58:26;;;;;;;7.68;4.72;;;21.60;69.40;;;;;;4964309;29;20305;-72
2023/07/22 21:00:54;;;;;;;7.88;5.35;;;21.60;69.80;;;;;;4963949;28;20067;-72
2023/07/22 21:03:20;;;;;;;6.70;4.55;;;21.60;69.50;;;;;;4963556;28;20372;-72
2023/07/22 21:05:56;;;;;;;8.77;4.47;;;21.60;70.00;;;;;;4964418;28;20232;-71
2023/07/22 21:08:23;;;;;;;8.25;4.80;;;21.60;69.30;;;;;;4945076;29;20031;-71
2023/07/22 21:10:49;;;;;;;9.50;5.65;;;21.60;69.60;;;;;;4944763;29;20082;-72
2023/07/22 21:13:16;;;;;;;8.15;5.28;;;21.70;68.70;;;;;;4945042;29;20298;-72
2023/07/22 21:15:42;;;;;;;9.23;5.55;;;21.70;70.30;;;;;;4944897;29;20043;-70
2023/07/22 21:18:07;;;;;;;6.88;4.15;;;21.60;70.50;;;;;;4944422;29;20132;-72
2023/07/22 21:20:33;;;;;;;7.45;4.35;;;21.60;71.20;;;;;;4959083;28;20034;-72
2023/07/22 21:22:59;;;;;;;6.32;4.20;;;21.50;71.30;;;;;;4986622;28;20069;-71
2023/07/22 21:25:24;;;;;;;7.03;4.10;;;21.40;70.80;;;;;;4973680;28;20046;-71
2023/07/22 21:27:50;;;;;;;6.00;4.00;;;21.30;71.50;;;;;;4982896;28;20333;-72
2023/07/22 21:30:18;;;;;;;7.75;4.50;;;21.30;72.60;;;;;;4987089;28;20102;-72
2023/07/22 21:32:44;;;;;;;7.78;4.38;;;21.10;72.90;;;;;;4975118;28;20328;-71
2023/07/22 21:35:10;;;;;;;6.95;4.53;;;21.00;73.50;;;;;;4975731;28;20043;-72
2023/07/22 21:37:36;;;;;;;6.82;4.20;;;20.90;73.90;;;;;;4967783;28;20101;-72
2023/07/22 21:40:02;;;;;;;7.47;4.00;;;20.80;74.10;;;;;;4967294;29;20086;-71
2023/07/22 21:42:29;;;;;;;7.43;4.20;;;20.70;74.40;;;;;;4967599;28;20066;-71
2023/07/22 21:44:56;;;;;;;6.00;3.80;;;20.60;74.70;;;;;;4966868;28;20043;-72
2023/07/22 21:47:22;;;;;;;6.90;4.13;;;20.50;74.40;;;;;;4967583;28;20043;-71
2023/07/22 21:49:48;;;;;;;7.97;4.43;;;20.50;75.80;;;;;;4969077;28;20038;-71
2023/07/22 21:52:14;;;;;;;6.13;3.90;;;20.40;75.20;;;;;;4966868;28;20035;-71
2023/07/22 21:54:40;;;;;;;6.97;3.60;;;20.30;75.60;;;;;;4966972;28;20047;-71
2023/07/22 21:57:06;;;;;;;6.18;3.92;;;20.30;76.00;;;;;;4966969;29;20070;-72
2023/07/22 21:59:31;;;;;;;6.22;3.55;;;20.20;75.40;;;;;;4967150;28;20051;-71
2023/07/22 22:01:58;;;;;;;6.85;3.20;;;20.20;76.30;;;;;;4965935;28;20035;-71
2023/07/22 22:04:23;;;;;;;6.00;3.45;;;20.20;75.20;;;;;;4967421;28;20039;-72
2023/07/22 22:06:49;;;;;;;7.93;4.47;;;20.20;75.60;;;;;;4966977;28;20071;-71
2023/07/22 22:09:15;;;;;;;8.38;3.70;;;20.20;76.40;;;;;;4966881;28;20041;-71
2023/07/22 22:11:40;;;;;;;6.80;3.85;;;20.20;76.30;;;;;;4967107;29;20043;-70
2023/07/22 22:14:06;;;;;;;6.88;4.20;;;20.20;76.90;;;;;;4966440;29;20031;-72
2023/07/22 22:16:32;;;;;;;8.88;4.88;;;20.20;76.70;;;;;;4966930;29;20245;-72
2023/07/22 22:18:57;;;;;;;9.40;6.28;;;20.20;76.80;;;;;;4966027;28;20078;-73
2023/07/22 22:21:23;;;;;;;7.32;4.18;;;20.20;77.10;;;;;;4966708;28;20315;-71
2023/07/22 22:23:49;;;;;;;7.13;4.35;;;20.20;77.10;;;;;;4966650;28;20078;-72
2023/07/22 22:26:14;;;;;;;8.85;3.95;;;20.10;76.90;;;;;;4965230;28;20062;-72
2023/07/22 22:28:40;;;;;;;5.47;3.65;;;20.10;77.10;;;;;;4966260;28;20302;-72
2023/07/22 22:31:06;;;;;;;7.95;4.32;;;20.10;77.10;;;;;;4961016;28;20376;-71
2023/07/22 22:33:31;;;;;;;5.97;3.88;;;20.00;77.10;;;;;;4947292;29;20036;-71
2023/07/22 22:35:57;;;;;;;7.63;3.22;;;20.00;77.30;;;;;;4946843;29;20044;-72
2023/07/22 22:38:23;;;;;;;6.10;3.47;;;20.00;76.50;;;;;;4947420;29;20135;-71